sensor_id;sensor_type;location;lat;lon;timestamp;pressure;altitude;pressure_sealevel;temperature;humidity
72110;BME280;59983;52.010;5.420;2023-05-07T00:01:12;101669.00;;;15.87;100.00
72110;BME280;59983;52.010;5.420;2023-05-07T00:03:38;101669.22;;;15.78;100.00
72110;BME280;59983;52.010;5.420;2023-05-07T00:06:05;101666.00;;;15.73;100.00
72110;BME280;59983;52.010;5.420;2023-05-07T00:08:32;101656.91;;;15.69;100.00
72110;BME280;59983;52.010;5.420;2023-05-07T00:10:59;101659.28;;;15.70;100.00
72110;BME280;59983;52.010;5.420;2023-05-07T00:13:25;101671.72;;;15.68;100.00
72110;BME280;59983;52.010;5.420;2023-05-07T00:15:52;101661.59;;;15.68;100.00
72110;BME280;59983;52.010;5.420;2023-05-07T00:18:19;101665.53;;;15.71;100.00
72110;BME280;59983;52.010;5.420;2023-05-07T00:20:48;101667.47;;;15.70;100.00
72110;BME280;59983;52.010;5.420;2023-05-07T00:23:15;101663.16;;;15.69;100.00
72110;BME280;59983;52.010;5.420;2023-05-07T00:25:41;101656.06;;;15.65;100.00
72110;BME280;59983;52.010;5.420;2023-05-07T00:28:08;101652.84;;;15.63;100.00
72110;BME280;59983;52.010;5.420;2023-05-07T00:30:34;101655.59;;;15.63;100.00
72110;BME280;59983;52.010;5.420;2023-05-07T00:33:01;101653.22;;;15.61;100.00
72110;BME280;59983;52.010;5.420;2023-05-07T00:35:28;101648.44;;;15.58;100.00
72110;BME280;59983;52.010;5.420;2023-05-07T00:37:56;101656.56;;;15.54;100.00
72110;BME280;59983;52.010;5.420;2023-05-07T00:40:22;101644.41;;;15.52;100.00
72110;BME280;59983;52.010;5.420;2023-05-07T00:42:49;101642.56;;;15.56;100.00
72110;BME280;59983;52.010;5.420;2023-05-07T00:45:16;101637.59;;;15.62;100.00
72110;BME280;59983;52.010;5.420;2023-05-07T00:47:43;101639.97;;;15.63;100.00
72110;BME280;59983;52.010;5.420;2023-05-07T00:50:10;101634.97;;;15.65;100.00
72110;BME280;59983;52.010;5.420;2023-05-07T00:52:39;101634.50;;;15.63;100.00
72110;BME280;59983;52.010;5.420;2023-05-07T00:55:06;101639.88;;;15.59;100.00
72110;BME280;59983;52.010;5.420;2023-05-07T00:57:36;101632.03;;;15.58;100.00
72110;BME280;59983;52.010;5.420;2023-05-07T01:00:04;101632.78;;;15.55;100.00
72110;BME280;59983;52.010;5.420;2023-05-07T01:02:31;101641.31;;;15.53;100.00
72110;BME280;59983;52.010;5.420;2023-05-07T01:04:59;101637.00;;;15.52;100.00
72110;BME280;59983;52.010;5.420;2023-05-07T01:07:27;101645.56;;;15.51;100.00
72110;BME280;59983;52.010;5.420;2023-05-07T01:09:53;101630.25;;;15.46;100.00
72110;BME280;59983;52.010;5.420;2023-05-07T01:12:20;101634.41;;;15.40;100.00
72110;BME280;59983;52.010;5.420;2023-05-07T01:14:47;101639.50;;;15.42;100.00
72110;BME280;59983;52.010;5.420;2023-05-07T01:17:16;101634.03;;;15.42;100.00
72110;BME280;59983;52.010;5.420;2023-05-07T01:19:43;101634.41;;;15.40;100.00
72110;BME280;59983;52.010;5.420;2023-05-07T01:22:10;101631.94;;;15.35;100.00
72110;BME280;59983;52.010;5.420;2023-05-07T01:24:38;101631.56;;;15.37;100.00
72110;BME280;59983;52.010;5.420;2023-05-07T01:27:04;101628.50;;;15.38;100.00
72110;BME280;59983;52.010;5.420;2023-05-07T01:29:31;101625.00;;;15.38;100.00
72110;BME280;59983;52.010;5.420;2023-05-07T01:31:59;101638.66;;;15.38;100.00
72110;BME280;59983;52.010;5.420;2023-05-07T01:34:31;101632.03;;;15.39;100.00
72110;BME280;59983;52.010;5.420;2023-05-07T01:36:59;101621.16;;;15.42;100.00
72110;BME280;59983;52.010;5.420;2023-05-07T01:39:28;101619.66;;;15.45;100.00
72110;BME280;59983;52.010;5.420;2023-05-07T01:41:55;101627.50;;;15.46;100.00
72110;BME280;59983;52.010;5.420;2023-05-07T01:44:23;101633.69;;;15.43;100.00
72110;BME280;59983;52.010;5.420;2023-05-07T01:46:50;101636.72;;;15.38;100.00
72110;BME280;59983;52.010;5.420;2023-05-07T01:49:17;101635.56;;;15.39;100.00
72110;BME280;59983;52.010;5.420;2023-05-07T01:51:44;101634.84;;;15.42;100.00
72110;BME280;59983;52.010;5.420;2023-05-07T01:54:10;101632.16;;;15.46;100.00
72110;BME280;59983;52.010;5.420;2023-05-07T01:56:37;101626.06;;;15.52;100.00
72110;BME280;59983;52.010;5.420;2023-05-07T01:59:04;101633.56;;;15.55;100.00
72110;BME280;59983;52.010;5.420;2023-05-07T02:01:31;101634.19;;;15.49;100.00
72110;BME280;59983;52.010;5.420;2023-05-07T02:03:58;101639.16;;;15.43;100.00
72110;BME280;59983;52.010;5.420;2023-05-07T02:06:24;101629.88;;;15.48;100.00
72110;BME280;59983;52.010;5.420;2023-05-07T02:08:51;101643.56;;;15.48;100.00
72110;BME280;59983;52.010;5.420;2023-05-07T02:11:17;101645.84;;;15.46;100.00
72110;BME280;59983;52.010;5.420;2023-05-07T02:13:44;101628.31;;;15.47;100.00
72110;BME280;59983;52.010;5.420;2023-05-07T02:16:11;101631.47;;;15.49;100.00
72110;BME280;59983;52.010;5.420;2023-05-07T02:18:37;101625.47;;;15.43;100.00
72110;BME280;59983;52.010;5.420;2023-05-07T02:21:04;101628.50;;;15.38;100.00
72110;BME280;59983;52.010;5.420;2023-05-07T02:23:30;101635.47;;;15.36;100.00
72110;BME280;59983;52.010;5.420;2023-05-07T02:25:57;101626.84;;;15.34;100.00
72110;BME280;59983;52.010;5.420;2023-05-07T02:28:23;101628.78;;;15.33;100.00
72110;BME280;59983;52.010;5.420;2023-05-07T02:30:50;101629.16;;;15.32;100.00
72110;BME280;59983;52.010;5.420;2023-05-07T02:33:16;101620.59;;;15.33;100.00
72110;BME280;59983;52.010;5.420;2023-05-07T02:35:43;101617.84;;;15.33;100.00
72110;BME280;59983;52.010;5.420;2023-05-07T02:38:09;101628.41;;;15.35;100.00
72110;BME280;59983;52.010;5.420;2023-05-07T02:40:37;101630.00;;;15.36;100.00
72110;BME280;59983;52.010;5.420;2023-05-07T02:43:05;101628.84;;;15.37;100.00
72110;BME280;59983;52.010;5.420;2023-05-07T02:45:32;101631.56;;;15.37;100.00
72110;BME280;59983;52.010;5.420;2023-05-07T02:48:00;101622.16;;;15.34;100.00
72110;BME280;59983;52.010;5.420;2023-05-07T02:50:26;101624.91;;;15.34;100.00
72110;BME280;59983;52.010;5.420;2023-05-07T02:52:53;101631.50;;;15.33;100.00
72110;BME280;59983;52.010;5.420;2023-05-07T02:55:20;101629.56;;;15.34;100.00
72110;BME280;59983;52.010;5.420;2023-05-07T02:57:46;101634.59;;;15.32;100.00
72110;BME280;59983;52.010;5.420;2023-05-07T03:00:17;101627.13;;;15.28;100.00
72110;BME280;59983;52.010;5.420;2023-05-07T03:02:44;101624.47;;;15.32;100.00
72110;BME280;59983;52.010;5.420;2023-05-07T03:05:11;101624.47;;;15.32;100.00
72110;BME280;59983;52.010;5.420;2023-05-07T03:07:38;101613.00;;;15.26;100.00
72110;BME280;59983;52.010;5.420;2023-05-07T03:10:05;101622.72;;;15.24;100.00
72110;BME280;59983;52.010;5.420;2023-05-07T03:12:32;101634.81;;;15.23;100.00
72110;BME280;59983;52.010;5.420;2023-05-07T03:14:59;101623.50;;;15.24;100.00
72110;BME280;59983;52.010;5.420;2023-05-07T03:17:25;101623.09;;;15.22;100.00
72110;BME280;59983;52.010;5.420;2023-05-07T03:19:52;101624.25;;;15.21;100.00
72110;BME280;59983;52.010;5.420;2023-05-07T03:22:18;101624.25;;;15.21;100.00
72110;BME280;59983;52.010;5.420;2023-05-07T03:24:45;101611.28;;;15.18;100.00
72110;BME280;59983;52.010;5.420;2023-05-07T03:27:11;101613.88;;;15.11;100.00
72110;BME280;59983;52.010;5.420;2023-05-07T03:29:37;101615.72;;;15.07;100.00
72110;BME280;59983;52.010;5.420;2023-05-07T03:32:04;101612.81;;;15.00;100.00
72110;BME280;59983;52.010;5.420;2023-05-07T03:34:32;101619.84;;;15.01;100.00
72110;BME280;59983;52.010;5.420;2023-05-07T03:36:58;101611.22;;;14.99;100.00
72110;BME280;59983;52.010;5.420;2023-05-07T03:39:25;101619.78;;;14.97;100.00
72110;BME280;59983;52.010;5.420;2023-05-07T03:41:51;101614.41;;;15.01;100.00
72110;BME280;59983;52.010;5.420;2023-05-07T03:44:18;101621.31;;;14.95;100.00
72110;BME280;59983;52.010;5.420;2023-05-07T03:46:44;101623.56;;;14.93;100.00
72110;BME280;59983;52.010;5.420;2023-05-07T03:49:11;101620.50;;;14.94;100.00
72110;BME280;59983;52.010;5.420;2023-05-07T03:51:37;101620.16;;;14.96;100.00
72110;BME280;59983;52.010;5.420;2023-05-07T03:54:04;101624.41;;;14.93;100.00
72110;BME280;59983;52.010;5.420;2023-05-07T03:56:30;101622.00;;;14.92;100.00
72110;BME280;59983;52.010;5.420;2023-05-07T03:58:57;101627.66;;;14.83;100.00
72110;BME280;59983;52.010;5.420;2023-05-07T04:01:24;101630.72;;;14.82;100.00
72110;BME280;59983;52.010;5.420;2023-05-07T04:03:51;101637.72;;;14.79;100.00
72110;BME280;59983;52.010;5.420;2023-05-07T04:06:17;101637.88;;;14.70;100.00
72110;BME280;59983;52.010;5.420;2023-05-07T04:08:44;101637.88;;;14.70;100.00
72110;BME280;59983;52.010;5.420;2023-05-07T04:11:10;101634.38;;;14.70;100.00
72110;BME280;59983;52.010;5.420;2023-05-07T04:13:37;101630.13;;;14.72;100.00
72110;BME280;59983;52.010;5.420;2023-05-07T04:16:05;101636.47;;;14.77;100.00
72110;BME280;59983;52.010;5.420;2023-05-07T04:18:31;101640.88;;;14.81;100.00
72110;BME280;59983;52.010;5.420;2023-05-07T04:20:58;101635.03;;;14.83;100.00
72110;BME280;59983;52.010;5.420;2023-05-07T04:23:24;101633.09;;;14.83;100.00
72110;BME280;59983;52.010;5.420;2023-05-07T04:25:51;101640.88;;;14.81;100.00
72110;BME280;59983;52.010;5.420;2023-05-07T04:28:17;101634.34;;;14.86;100.00
72110;BME280;59983;52.010;5.420;2023-05-07T04:30:44;101635.22;;;14.90;100.00
72110;BME280;59983;52.010;5.420;2023-05-07T04:33:10;101631.34;;;14.91;100.00
72110;BME280;59983;52.010;5.420;2023-05-07T04:35:38;101641.47;;;14.90;100.00
72110;BME280;59983;52.010;5.420;2023-05-07T04:38:04;101630.19;;;14.92;100.00
72110;BME280;59983;52.010;5.420;2023-05-07T04:40:31;101629.84;;;14.93;100.00
72110;BME280;59983;52.010;5.420;2023-05-07T04:42:58;101636.81;;;14.91;100.00
72110;BME280;59983;52.010;5.420;2023-05-07T04:45:24;101630.28;;;14.95;100.00
72110;BME280;59983;52.010;5.420;2023-05-07T04:47:51;101630.78;;;15.01;100.00
72110;BME280;59983;52.010;5.420;2023-05-07T04:50:17;101636.78;;;15.07;100.00
72110;BME280;59983;52.010;5.420;2023-05-07T04:52:45;101641.88;;;15.08;100.00
72110;BME280;59983;52.010;5.420;2023-05-07T04:55:12;101641.63;;;15.13;100.00
72110;BME280;59983;52.010;5.420;2023-05-07T04:57:38;101646.38;;;15.16;100.00
72110;BME280;59983;52.010;5.420;2023-05-07T05:00:07;101647.94;;;15.17;100.00
72110;BME280;59983;52.010;5.420;2023-05-07T05:02:35;101648.66;;;15.14;100.00
72110;BME280;59983;52.010;5.420;2023-05-07T05:05:02;101653.72;;;15.12;100.00
72110;BME280;59983;52.010;5.420;2023-05-07T05:07:29;101655.66;;;15.12;100.00
72110;BME280;59983;52.010;5.420;2023-05-07T05:09:55;101653.34;;;15.14;100.00
72110;BME280;59983;52.010;5.420;2023-05-07T05:12:23;101655.34;;;15.17;100.00
72110;BME280;59983;52.010;5.420;2023-05-07T05:14:50;101656.88;;;15.14;100.00
72110;BME280;59983;52.010;5.420;2023-05-07T05:17:16;101655.72;;;15.15;100.00
72110;BME280;59983;52.010;5.420;2023-05-07T05:19:43;101656.88;;;15.14;100.00
72110;BME280;59983;52.010;5.420;2023-05-07T05:22:09;101661.97;;;15.16;100.00
72110;BME280;59983;52.010;5.420;2023-05-07T05:24:36;101657.31;;;15.16;100.00
72110;BME280;59983;52.010;5.420;2023-05-07T05:27:02;101662.50;;;15.21;100.00
72110;BME280;59983;52.010;5.420;2023-05-07T05:29:29;101663.28;;;15.22;100.00
72110;BME280;59983;52.010;5.420;2023-05-07T05:31:57;101666.09;;;15.25;100.00
72110;BME280;59983;52.010;5.420;2023-05-07T05:34:24;101666.63;;;15.31;100.00
72110;BME280;59983;52.010;5.420;2023-05-07T05:36:50;101674.09;;;15.34;100.00
72110;BME280;59983;52.010;5.420;2023-05-07T05:39:17;101673.47;;;15.41;100.00
72110;BME280;59983;52.010;5.420;2023-05-07T05:41:44;101681.31;;;15.42;100.00
72110;BME280;59983;52.010;5.420;2023-05-07T05:44:11;101687.31;;;15.48;100.00
72110;BME280;59983;52.010;5.420;2023-05-07T05:46:37;101690.03;;;15.48;100.00
72110;BME280;59983;52.010;5.420;2023-05-07T05:49:04;101687.00;;;15.53;100.00
72110;BME280;59983;52.010;5.420;2023-05-07T05:51:30;101691.63;;;15.49;100.00
72110;BME280;59983;52.010;5.420;2023-05-07T05:53:57;101692.78;;;15.48;100.00
72110;BME280;59983;52.010;5.420;2023-05-07T05:56:23;101696.66;;;15.47;100.00
72110;BME280;59983;52.010;5.420;2023-05-07T05:58:51;101699.03;;;15.48;100.00
72110;BME280;59983;52.010;5.420;2023-05-07T06:01:18;101702.91;;;15.47;100.00
72110;BME280;59983;52.010;5.420;2023-05-07T06:03:45;101703.78;;;15.51;100.00
72110;BME280;59983;52.010;5.420;2023-05-07T06:06:11;101700.63;;;15.49;100.00
72110;BME280;59983;52.010;5.420;2023-05-07T06:08:38;101699.63;;;15.57;100.00
72110;BME280;59983;52.010;5.420;2023-05-07T06:11:04;101708.25;;;15.59;100.00
72110;BME280;59983;52.010;5.420;2023-05-07T06:13:31;101708.34;;;15.63;100.00
72110;BME280;59983;52.010;5.420;2023-05-07T06:15:57;101717.81;;;15.66;100.00
72110;BME280;59983;52.010;5.420;2023-05-07T06:18:24;101707.66;;;15.66;100.00
72110;BME280;59983;52.010;5.420;2023-05-07T06:20:52;101715.13;;;15.69;100.00
72110;BME280;59983;52.010;5.420;2023-05-07T06:23:19;101710.03;;;15.68;100.00
72110;BME280;59983;52.010;5.420;2023-05-07T06:25:50;101716.28;;;15.68;100.00
72110;BME280;59983;52.010;5.420;2023-05-07T06:28:17;101717.88;;;15.69;100.00
72110;BME280;59983;52.010;5.420;2023-05-07T06:30:44;101721.03;;;15.71;100.00
72110;BME280;59983;52.010;5.420;2023-05-07T06:33:11;101711.66;;;15.72;100.00
72110;BME280;59983;52.010;5.420;2023-05-07T06:35:38;101721.81;;;15.72;100.00
72110;BME280;59983;52.010;5.420;2023-05-07T06:38:04;101710.81;;;15.68;100.00
72110;BME280;59983;52.010;5.420;2023-05-07T06:40:31;101708.16;;;15.72;100.00
72110;BME280;59983;52.010;5.420;2023-05-07T06:42:57;101719.81;;;15.69;100.00
72110;BME280;59983;52.010;5.420;2023-05-07T06:45:24;101724.50;;;15.68;100.00
72110;BME280;59983;52.010;5.420;2023-05-07T06:47:51;101721.50;;;15.73;100.00
72110;BME280;59983;52.010;5.420;2023-05-07T06:50:18;101724.28;;;15.77;100.00
72110;BME280;59983;52.010;5.420;2023-05-07T06:52:44;101722.41;;;15.81;100.00
72110;BME280;59983;52.010;5.420;2023-05-07T06:55:11;101724.88;;;15.86;100.00
72110;BME280;59983;52.010;5.420;2023-05-07T06:57:38;101724.09;;;15.85;100.00
72110;BME280;59983;52.010;5.420;2023-05-07T07:00:05;101729.13;;;15.83;100.00
72110;BME280;59983;52.010;5.420;2023-05-07T07:02:36;101725.28;;;15.88;100.00
72110;BME280;59983;52.010;5.420;2023-05-07T07:05:03;101718.81;;;15.96;100.00
72110;BME280;59983;52.010;5.420;2023-05-07T07:07:30;101711.81;;;15.99;100.00
72110;BME280;59983;52.010;5.420;2023-05-07T07:09:56;101711.81;;;15.99;100.00
72110;BME280;59983;52.010;5.420;2023-05-07T07:12:23;101714.72;;;16.06;100.00
72110;BME280;59983;52.010;5.420;2023-05-07T07:14:51;101708.97;;;16.11;100.00
72110;BME280;59983;52.010;5.420;2023-05-07T07:17:17;101718.47;;;16.17;100.00
72110;BME280;59983;52.010;5.420;2023-05-07T07:19:44;101717.16;;;16.30;100.00
72110;BME280;59983;52.010;5.420;2023-05-07T07:22:10;101715.75;;;16.40;100.00
72110;BME280;59983;52.010;5.420;2023-05-07T07:24:37;101715.09;;;16.47;100.00
72110;BME280;59983;52.010;5.420;2023-05-07T07:27:04;101715.94;;;16.51;100.00
72110;BME280;59983;52.010;5.420;2023-05-07T07:29:31;101714.00;;;16.51;100.00
72110;BME280;59983;52.010;5.420;2023-05-07T07:31:57;101714.09;;;16.55;100.00
72110;BME280;59983;52.010;5.420;2023-05-07T07:34:24;101721.69;;;16.65;100.00
72110;BME280;59983;52.010;5.420;2023-05-07T07:36:50;101724.84;;;16.67;100.00
72110;BME280;59983;52.010;5.420;2023-05-07T07:39:17;101732.44;;;16.74;100.00
72110;BME280;59983;52.010;5.420;2023-05-07T07:41:43;101721.63;;;16.81;100.00
72110;BME280;59983;52.010;5.420;2023-05-07T07:44:10;101729.09;;;16.84;100.00
72110;BME280;59983;52.010;5.420;2023-05-07T07:46:41;101722.09;;;16.86;100.00
72110;BME280;59983;52.010;5.420;2023-05-07T07:49:08;101725.28;;;16.88;100.00
72110;BME280;59983;52.010;5.420;2023-05-07T07:51:34;101732.75;;;16.91;100.00
72110;BME280;59983;52.010;5.420;2023-05-07T07:54:01;101732.75;;;16.91;100.00
72110;BME280;59983;52.010;5.420;2023-05-07T07:56:29;101745.72;;;16.94;100.00
72110;BME280;59983;52.010;5.420;2023-05-07T07:58:55;101741.75;;;16.92;100.00
72110;BME280;59983;52.010;5.420;2023-05-07T08:01:22;101740.56;;;16.89;100.00
72110;BME280;59983;52.010;5.420;2023-05-07T08:03:48;101736.16;;;16.85;100.00
72110;BME280;59983;52.010;5.420;2023-05-07T08:06:15;101746.94;;;16.74;100.00
72110;BME280;59983;52.010;5.420;2023-05-07T08:08:41;101750.31;;;16.67;100.00
72110;BME280;59983;52.010;5.420;2023-05-07T08:11:08;101751.84;;;16.65;100.00
72110;BME280;59983;52.010;5.420;2023-05-07T08:13:34;101743.97;;;16.63;100.00
72110;BME280;59983;52.010;5.420;2023-05-07T08:16:01;101746.31;;;16.61;100.00
72110;BME280;59983;52.010;5.420;2023-05-07T08:18:28;101747.50;;;16.64;100.00
72110;BME280;59983;52.010;5.420;2023-05-07T08:20:55;101746.72;;;16.63;100.00
72110;BME280;59983;52.010;5.420;2023-05-07T08:23:22;101742.41;;;16.62;100.00
72110;BME280;59983;52.010;5.420;2023-05-07T08:25:51;101748.00;;;16.69;100.00
72110;BME280;59983;52.010;5.420;2023-05-07T08:28:18;101747.72;;;16.75;100.00
72110;BME280;59983;52.010;5.420;2023-05-07T08:30:46;101751.63;;;16.74;100.00
72110;BME280;59983;52.010;5.420;2023-05-07T08:33:13;101739.09;;;16.73;100.00
72110;BME280;59983;52.010;5.420;2023-05-07T08:35:39;101745.03;;;16.78;100.00
72110;BME280;59983;52.010;5.420;2023-05-07T08:38:06;101746.75;;;16.86;100.00
72110;BME280;59983;52.010;5.420;2023-05-07T08:40:37;101745.41;;;16.99;100.00
72110;BME280;59983;52.010;5.420;2023-05-07T08:43:07;101748.66;;;17.05;100.00
72110;BME280;59983;52.010;5.420;2023-05-07T08:45:34;101752.72;;;17.15;100.00
72110;BME280;59983;52.010;5.420;2023-05-07T08:48:05;101749.66;;;17.20;100.00
72110;BME280;59983;52.010;5.420;2023-05-07T08:50:35;101751.69;;;17.23;100.00
72110;BME280;59983;52.010;5.420;2023-05-07T08:53:03;101746.25;;;17.26;100.00
72110;BME280;59983;52.010;5.420;2023-05-07T08:55:29;101758.41;;;17.29;100.00
72110;BME280;59983;52.010;5.420;2023-05-07T08:57:56;101748.34;;;17.37;100.00
72110;BME280;59983;52.010;5.420;2023-05-07T09:00:23;101745.66;;;17.40;100.00
72110;BME280;59983;52.010;5.420;2023-05-07T09:02:50;101759.06;;;17.45;100.00
72110;BME280;59983;52.010;5.420;2023-05-07T09:05:16;101750.19;;;17.55;100.00
72110;BME280;59983;52.010;5.420;2023-05-07T09:07:43;101751.47;;;17.62;100.00
72110;BME280;59983;52.010;5.420;2023-05-07T09:10:10;101756.56;;;17.63;100.00
72110;BME280;59983;52.010;5.420;2023-05-07T09:12:37;101756.94;;;17.62;100.00
72110;BME280;59983;52.010;5.420;2023-05-07T09:15:05;101749.91;;;17.64;100.00
72110;BME280;59983;52.010;5.420;2023-05-07T09:17:31;101754.75;;;17.71;100.00
72110;BME280;59983;52.010;5.420;2023-05-07T09:20:05;101760.25;;;17.71;100.00
72110;BME280;59983;52.010;5.420;2023-05-07T09:22:36;101756.47;;;17.82;100.00
72110;BME280;59983;52.010;5.420;2023-05-07T09:25:06;101754.53;;;18.13;100.00
72110;BME280;59983;52.010;5.420;2023-05-07T09:27:33;101751.56;;;18.29;100.00
72110;BME280;59983;52.010;5.420;2023-05-07T09:30:03;101762.22;;;18.34;100.00
72110;BME280;59983;52.010;5.420;2023-05-07T09:32:29;101760.25;;;18.34;100.00
72110;BME280;59983;52.010;5.420;2023-05-07T09:34:58;101755.94;;;18.33;100.00
72110;BME280;59983;52.010;5.420;2023-05-07T09:37:25;101753.19;;;18.37;100.00
72110;BME280;59983;52.010;5.420;2023-05-07T09:39:52;101757.63;;;18.45;100.00
72110;BME280;59983;52.010;5.420;2023-05-07T09:42:23;101753.84;;;18.57;100.00
72110;BME280;59983;52.010;5.420;2023-05-07T09:44:50;101751.50;;;18.62;100.00
72110;BME280;59983;52.010;5.420;2023-05-07T09:47:19;101744.94;;;18.71;100.00
72110;BME280;59983;52.010;5.420;2023-05-07T09:49:47;101755.22;;;18.77;100.00
72110;BME280;59983;52.010;5.420;2023-05-07T09:52:14;101763.09;;;18.79;100.00
72110;BME280;59983;52.010;5.420;2023-05-07T09:54:43;101752.81;;;18.72;100.00
72110;BME280;59983;52.010;5.420;2023-05-07T09:57:11;101756.41;;;18.80;100.00
72110;BME280;59983;52.010;5.420;2023-05-07T09:59:38;101758.00;;;18.81;100.00
72110;BME280;59983;52.010;5.420;2023-05-07T10:02:09;101758.00;;;18.81;100.00
72110;BME280;59983;52.010;5.420;2023-05-07T10:04:36;101753.66;;;18.76;99.95
72110;BME280;59983;52.010;5.420;2023-05-07T10:07:04;101763.66;;;18.58;100.00
72110;BME280;59983;52.010;5.420;2023-05-07T10:09:31;101762.69;;;18.77;100.00
72110;BME280;59983;52.010;5.420;2023-05-07T10:11:58;101763.63;;;18.91;100.00
72110;BME280;59983;52.010;5.420;2023-05-07T10:14:27;101754.59;;;18.94;100.00
72110;BME280;59983;52.010;5.420;2023-05-07T10:16:54;101769.22;;;19.06;100.00
72110;BME280;59983;52.010;5.420;2023-05-07T10:19:22;101758.59;;;19.01;97.42
72110;BME280;59983;52.010;5.420;2023-05-07T10:22:03;101758.59;;;19.01;100.00
72110;BME280;59983;52.010;5.420;2023-05-07T10:24:35;101759.47;;;19.15;100.00
72110;BME280;59983;52.010;5.420;2023-05-07T10:27:09;101755.69;;;19.34;99.95
72110;BME280;59983;52.010;5.420;2023-05-07T10:32:25;101763.41;;;19.69;95.59
72110;BME280;59983;52.010;5.420;2023-05-07T10:34:55;101756.38;;;19.75;97.20
72110;BME280;59983;52.010;5.420;2023-05-07T10:37:23;101758.03;;;19.94;98.95
72110;BME280;59983;52.010;5.420;2023-05-07T10:39:50;101758.41;;;19.93;94.48
72110;BME280;59983;52.010;5.420;2023-05-07T10:42:17;101758.00;;;19.87;91.48
72110;BME280;59983;52.010;5.420;2023-05-07T10:44:44;101753.69;;;19.93;95.30
72110;BME280;59983;52.010;5.420;2023-05-07T10:47:13;101754.50;;;19.94;98.06
72110;BME280;59983;52.010;5.420;2023-05-07T10:52:23;101751.47;;;20.27;93.99
72110;BME280;59983;52.010;5.420;2023-05-07T10:57:44;101747.97;;;20.37;90.87
72110;BME280;59983;52.010;5.420;2023-05-07T11:05:30;101753.16;;;20.53;88.85
72110;BME280;59983;52.010;5.420;2023-05-07T11:08:01;101754.31;;;20.49;87.67
72110;BME280;59983;52.010;5.420;2023-05-07T11:10:56;101751.53;;;20.49;89.88
72110;BME280;59983;52.010;5.420;2023-05-07T11:13:48;101758.28;;;20.51;86.77
72110;BME280;59983;52.010;5.420;2023-05-07T11:16:25;101758.69;;;20.71;87.59
72110;BME280;59983;52.010;5.420;2023-05-07T11:18:55;101758.28;;;20.73;86.43
72110;BME280;59983;52.010;5.420;2023-05-07T11:21:39;101761.06;;;20.83;85.50
72110;BME280;59983;52.010;5.420;2023-05-07T11:24:09;101754.75;;;21.01;85.16
72110;BME280;59983;52.010;5.420;2023-05-07T11:26:49;101766.19;;;20.99;83.11
72110;BME280;59983;52.010;5.420;2023-05-07T11:29:20;101763.44;;;20.99;82.71
72110;BME280;59983;52.010;5.420;2023-05-07T11:31:50;101767.00;;;21.03;79.82
72110;BME280;59983;52.010;5.420;2023-05-07T11:34:24;101765.78;;;21.01;80.75
72110;BME280;59983;52.010;5.420;2023-05-07T11:36:51;101762.66;;;21.13;81.65
72110;BME280;59983;52.010;5.420;2023-05-07T11:39:25;101765.00;;;21.36;83.03
72110;BME280;59983;52.010;5.420;2023-05-07T11:41:52;101762.22;;;21.54;80.12
72110;BME280;59983;52.010;5.420;2023-05-07T11:44:19;101765.75;;;21.61;79.40
72110;BME280;59983;52.010;5.420;2023-05-07T11:46:45;101761.47;;;21.49;76.98
72110;BME280;59983;52.010;5.420;2023-05-07T11:49:12;101763.06;;;21.47;79.65
72110;BME280;59983;52.010;5.420;2023-05-07T11:51:39;101763.84;;;21.30;75.86
72110;BME280;59983;52.010;5.420;2023-05-07T11:54:08;101765.44;;;21.31;76.51
72110;BME280;59983;52.010;5.420;2023-05-07T11:56:35;101760.69;;;21.38;73.33
72110;BME280;59983;52.010;5.420;2023-05-07T11:59:02;101759.06;;;21.55;73.59
72110;BME280;59983;52.010;5.420;2023-05-07T12:01:28;101763.00;;;21.61;74.84
72110;BME280;59983;52.010;5.420;2023-05-07T12:03:55;101764.22;;;21.57;75.18
72110;BME280;59983;52.010;5.420;2023-05-07T12:06:21;101763.00;;;21.68;77.78
72110;BME280;59983;52.010;5.420;2023-05-07T12:08:48;101764.94;;;21.75;75.08
72110;BME280;59983;52.010;5.420;2023-05-07T12:11:24;101770.03;;;21.80;74.47
72110;BME280;59983;52.010;5.420;2023-05-07T12:13:53;101766.16;;;21.67;73.16
72110;BME280;59983;52.010;5.420;2023-05-07T12:16:25;101766.94;;;21.74;75.58
72110;BME280;59983;52.010;5.420;2023-05-07T12:18:51;101762.59;;;21.73;76.10
72110;BME280;59983;52.010;5.420;2023-05-07T12:21:21;101759.41;;;21.82;72.43
72110;BME280;59983;52.010;5.420;2023-05-07T12:23:48;101766.44;;;21.97;70.05
72110;BME280;59983;52.010;5.420;2023-05-07T12:26:14;101763.25;;;22.13;73.79
72110;BME280;59983;52.010;5.420;2023-05-07T12:28:41;101765.91;;;22.34;72.50
72110;BME280;59983;52.010;5.420;2023-05-07T12:31:08;101769.03;;;22.40;69.86
72110;BME280;59983;52.010;5.420;2023-05-07T12:33:35;101770.19;;;22.46;73.53
72110;BME280;59983;52.010;5.420;2023-05-07T12:36:04;101763.03;;;22.52;72.23
72110;BME280;59983;52.010;5.420;2023-05-07T12:38:36;101762.84;;;22.84;71.27
72110;BME280;59983;52.010;5.420;2023-05-07T12:41:03;101760.19;;;23.18;69.89
72110;BME280;59983;52.010;5.420;2023-05-07T12:43:30;101750.59;;;23.30;68.55
72110;BME280;59983;52.010;5.420;2023-05-07T12:46:00;101762.97;;;23.18;67.26
72110;BME280;59983;52.010;5.420;2023-05-07T12:48:27;101755.03;;;23.21;68.14
72110;BME280;59983;52.010;5.420;2023-05-07T12:50:54;101756.53;;;23.32;68.47
72110;BME280;59983;52.010;5.420;2023-05-07T12:53:23;101761.28;;;23.28;70.32
72110;BME280;59983;52.010;5.420;2023-05-07T12:55:52;101764.72;;;22.98;68.91
72110;BME280;59983;52.010;5.420;2023-05-07T12:58:30;101769.53;;;22.87;66.02